Time;durP1;ratioP1;P1;durP2;ratioP2;P2;SDS_P1;SDS_P2;PMS_P1;PMS_P2;Temp;Humidity;BMP_temperature;BMP_pressure;BME280_temperature;BME280_humidity;BME280_pressure;Samples;Min_cycle;Max_cycle;Signal;HPM_P1;HPM_P2
2024/01/28 00:00:15;;;;;;;3.60;1.65;;;;;;;20.65;39.82;103202.53;4926782;28;96848;-73
2024/01/28 00:02:41;;;;;;;4.40;2.05;;;;;;;20.66;40.05;103203.41;4931215;28;97315;-74
2024/01/28 00:05:06;;;;;;;4.75;2.53;;;;;;;20.66;39.96;103206.06;4931391;28;96819;-73
2024/01/28 00:07:32;;;;;;;4.18;2.40;;;;;;;20.64;40.04;103203.44;4927786;28;97501;-73
2024/01/28 00:09:57;;;;;;;3.78;2.20;;;;;;;20.64;39.91;103197.22;4927557;28;96979;-73
2024/01/28 00:12:23;;;;;;;3.78;2.28;;;;;;;20.64;39.95;103200.78;4925694;28;125964;-71
2024/01/28 00:14:48;;;;;;;3.35;1.73;;;;;;;20.64;40.08;103195.47;4921972;28;118701;-71
2024/01/28 00:17:13;;;;;;;5.05;2.40;;;;;;;20.65;39.65;103191.94;4925050;28;122125;-72
2024/01/28 00:19:39;;;;;;;3.33;1.85;;;;;;;20.64;39.68;103184.88;4921548;28;121642;-71
2024/01/28 00:22:04;;;;;;;3.78;1.90;;;;;;;20.64;39.65;103179.56;4923107;28;100571;-71
2024/01/28 00:24:29;;;;;;;3.53;1.75;;;;;;;20.64;39.75;103183.94;4920086;28;96926;-72
2024/01/28 00:26:55;;;;;;;3.65;2.13;;;;;;;20.63;39.66;103175.13;4927417;28;96833;-71
2024/01/28 00:29:28;;;;;;;3.75;2.13;;;;;;;20.63;39.96;103161.88;4927060;28;97628;-71
2024/01/28 00:31:57;;;;;;;4.40;2.70;;;;;;;20.63;39.86;103148.59;4920942;28;99432;-72
2024/01/28 00:34:23;;;;;;;;;;;;;;;20.56;39.81;103138.78;4927568;28;96716;-71
2024/01/28 00:36:49;;;;;;;3.85;2.13;;;;;;;20.58;39.71;103141.47;4927582;28;96747;-71
2024/01/28 00:39:14;;;;;;;3.90;1.58;;;;;;;20.60;39.93;103145.00;4926768;28;96796;-72
2024/01/28 00:41:39;;;;;;;4.18;2.47;;;;;;;20.60;40.02;103134.41;4927574;28;98090;-72
2024/01/28 00:44:05;;;;;;;3.70;1.67;;;;;;;20.61;39.86;103133.53;4926292;28;97878;-71
2024/01/28 00:46:33;;;;;;;3.75;1.73;;;;;;;20.60;39.92;103134.41;4927166;28;97105;-72
2024/01/28 00:48:59;;;;;;;3.33;2.40;;;;;;;20.60;39.62;103134.41;4926494;28;96984;-70
2024/01/28 00:51:24;;;;;;;3.22;1.42;;;;;;;20.60;39.67;103121.16;4925225;28;96919;-72
2024/01/28 00:53:50;;;;;;;3.00;2.13;;;;;;;20.61;39.67;103125.59;4926738;28;104397;-71
2024/01/28 00:56:17;;;;;;;3.63;2.42;;;;;;;20.60;39.92;103122.03;4926810;28;97150;-71
2024/01/28 00:58:43;;;;;;;3.22;1.65;;;;;;;20.60;39.84;103124.69;4925463;28;96692;-71
2024/01/28 01:01:08;;;;;;;3.78;1.90;;;;;;;20.60;39.53;103127.31;4930653;28;96764;-72
2024/01/28 01:03:34;;;;;;;4.32;1.75;;;;;;;20.61;39.64;103133.53;4911543;28;126609;-71
2024/01/28 01:05:59;;;;;;;3.55;2.10;;;;;;;20.60;39.52;103132.63;4928030;28;118395;-71
2024/01/28 01:08:24;;;;;;;3.33;2.38;;;;;;;20.61;39.81;103136.19;4910602;28;96851;-71
2024/01/28 01:10:50;;;;;;;4.43;2.20;;;;;;;20.60;39.83;103135.28;4929647;28;96669;-71
2024/01/28 01:13:16;;;;;;;3.80;2.08;;;;;;;20.61;39.91;103133.53;4910351;28;126572;-71
2024/01/28 01:15:41;;;;;;;3.08;1.83;;;;;;;20.60;39.48;103135.28;4930562;28;96775;-71
2024/01/28 01:18:06;;;;;;;4.78;2.47;;;;;;;20.60;39.53;103134.41;4929883;28;96815;-71
2024/01/28 01:20:33;;;;;;;3.47;2.42;;;;;;;20.60;39.70;103129.09;4930092;28;97556;-71
2024/01/28 01:22:58;;;;;;;3.75;1.73;;;;;;;20.60;39.83;103132.63;4929732;28;97554;-71
2024/01/28 01:25:24;;;;;;;3.85;2.20;;;;;;;20.59;39.55;103122.91;4913538;28;98288;-71
2024/01/28 01:27:52;;;;;;;3.35;1.45;;;;;;;20.60;39.57;103127.31;4923167;28;97061;-71
2024/01/28 01:30:18;;;;;;;3.47;1.90;;;;;;;20.60;39.57;103132.63;4906991;28;97406;-71
2024/01/28 01:32:43;;;;;;;3.13;1.70;;;;;;;20.59;39.49;103128.22;4930389;28;97108;-71
2024/01/28 01:35:09;;;;;;;3.63;2.03;;;;;;;20.59;39.64;103125.56;4930184;28;96954;-72
2024/01/28 01:37:35;;;;;;;4.80;1.73;;;;;;;20.58;39.81;103123.78;4911919;28;96729;-71
2024/01/28 01:40:00;;;;;;;3.55;2.38;;;;;;;20.60;39.77;103124.69;4895435;28;120453;-71
2024/01/28 01:42:26;;;;;;;3.20;1.60;;;;;;;20.59;39.68;103122.91;4929430;28;97082;-71
2024/01/28 01:44:52;;;;;;;3.70;1.90;;;;;;;20.59;39.40;103116.72;4930391;28;96856;-71
2024/01/28 01:47:18;;;;;;;3.38;1.65;;;;;;;20.59;39.80;103116.72;4929925;28;97203;-71
2024/01/28 01:49:44;;;;;;;3.15;1.45;;;;;;;20.59;39.27;103117.63;4930006;28;97004;-71
2024/01/28 01:52:09;;;;;;;4.28;1.80;;;;;;;20.58;39.53;103114.94;4918246;28;97765;-71
2024/01/28 01:54:36;;;;;;;3.45;1.65;;;;;;;20.58;39.35;103120.25;4927049;28;96714;-72
2024/01/28 01:57:01;;;;;;;3.78;1.80;;;;;;;20.57;39.67;103111.41;4929805;28;96998;-72
2024/01/28 01:59:27;;;;;;;3.25;1.92;;;;;;;20.58;39.60;103118.47;4926888;28;98161;-72
2024/01/28 02:01:54;;;;;;;3.17;1.95;;;;;;;20.58;39.56;103114.94;4922990;28;97124;-71
2024/01/28 02:04:23;;;;;;;3.97;1.80;;;;;;;20.58;39.60;103112.31;4924733;28;96644;-71
2024/01/28 02:06:51;;;;;;;2.83;1.42;;;;;;;20.58;39.38;103109.66;4925082;28;96761;-71
2024/01/28 02:09:17;;;;;;;4.13;2.20;;;;;;;20.57;39.35;103116.72;4928273;28;112379;-72
2024/01/28 02:11:43;;;;;;;4.38;2.60;;;;;;;20.58;39.52;103125.56;4926095;28;96834;-70
2024/01/28 02:14:10;;;;;;;3.75;1.40;;;;;;;20.57;39.27;103129.06;4929791;28;97162;-71
2024/01/28 02:16:35;;;;;;;4.00;2.00;;;;;;;20.56;39.32;103128.19;4920970;28;96682;-71
2024/01/28 02:19:00;;;;;;;3.78;1.70;;;;;;;20.57;39.63;103115.81;4929023;28;116197;-71
2024/01/28 02:21:26;;;;;;;3.08;1.63;;;;;;;20.56;39.67;103114.06;4937945;28;126574;-72
2024/01/28 02:23:51;;;;;;;3.45;1.73;;;;;;;20.56;39.60;103119.34;4900764;28;98241;-71
2024/01/28 02:26:16;;;;;;;3.65;1.73;;;;;;;20.56;39.62;103127.31;4916608;28;115909;-71
2024/01/28 02:28:42;;;;;;;2.92;2.28;;;;;;;20.56;39.49;103122.00;4935765;28;96820;-72
2024/01/28 02:31:07;;;;;;;3.65;1.50;;;;;;;20.55;39.38;103121.09;4929162;28;96610;-72
2024/01/28 02:33:33;;;;;;;3.55;1.73;;;;;;;20.55;39.29;103121.09;4925728;28;96885;-71
2024/01/28 02:35:58;;;;;;;3.50;1.48;;;;;;;20.54;39.31;103114.03;4926397;28;120912;-71
2024/01/28 02:38:23;;;;;;;2.97;1.45;;;;;;;20.54;39.51;103112.28;4926967;28;104432;-72
2024/01/28 02:40:51;;;;;;;4.00;1.90;;;;;;;20.54;39.48;103109.63;4925043;28;126587;-71
2024/01/28 02:43:16;;;;;;;3.03;1.42;;;;;;;20.54;39.27;103109.63;4929118;28;97278;-72
2024/01/28 02:45:41;;;;;;;3.75;2.25;;;;;;;20.54;39.58;103101.66;4907917;28;122469;-72
2024/01/28 02:48:07;;;;;;;3.42;1.60;;;;;;;20.54;39.31;103087.53;4927236;28;116128;-72
2024/01/28 02:50:32;;;;;;;2.80;1.55;;;;;;;20.53;39.52;103081.34;4928660;28;98067;-71
2024/01/28 02:52:57;;;;;;;5.30;1.70;;;;;;;20.54;39.48;103068.97;4908001;28;122341;-72
2024/01/28 02:55:23;;;;;;;3.15;2.35;;;;;;;20.53;39.20;103065.44;4915942;28;120887;-71
2024/01/28 02:57:48;;;;;;;2.90;1.83;;;;;;;20.53;39.23;103061.88;4921029;28;114839;-71
2024/01/28 03:00:14;;;;;;;3.72;1.58;;;;;;;20.52;39.07;103055.69;4929096;28;97919;-72
2024/01/28 03:02:40;;;;;;;3.03;1.67;;;;;;;20.53;39.24;103053.94;4928370;28;97004;-71
2024/01/28 03:05:09;;;;;;;2.90;1.55;;;;;;;20.53;39.38;103048.63;4927631;28;119834;-71
2024/01/28 03:07:34;;;;;;;2.92;1.52;;;;;;;20.52;39.19;103057.47;4924901;28;97591;-70
2024/01/28 03:10:00;;;;;;;2.67;1.33;;;;;;;20.53;39.37;103059.22;4903647;28;97476;-71
2024/01/28 03:12:26;;;;;;;4.63;2.10;;;;;;;20.53;39.37;103053.94;4910150;28;97161;-71
2024/01/28 03:14:52;;;;;;;3.15;2.08;;;;;;;20.52;39.21;103057.47;4924321;28;124365;-70
2024/01/28 03:17:17;;;;;;;4.50;1.98;;;;;;;20.51;39.16;103051.25;4924404;28;98818;-71
2024/01/28 03:19:43;;;;;;;3.05;1.77;;;;;;;20.51;39.03;103034.47;4925096;28;97397;-71
2024/01/28 03:22:08;;;;;;;3.63;2.20;;;;;;;20.51;39.43;103039.78;4921638;28;112550;-72
2024/01/28 03:24:33;;;;;;;3.83;1.80;;;;;;;20.51;39.30;103039.78;4922393;28;98940;-71
2024/01/28 03:26:59;;;;;;;3.60;1.90;;;;;;;20.51;39.08;103038.00;4892535;28;99880;-72
2024/01/28 03:29:24;;;;;;;3.88;1.90;;;;;;;20.51;39.04;103040.66;4924687;28;97250;-71
2024/01/28 03:31:49;;;;;;;3.10;1.98;;;;;;;20.51;39.19;103037.13;4928339;28;96684;-71
2024/01/28 03:34:15;;;;;;;3.50;1.73;;;;;;;20.50;39.23;103030.94;4909551;28;120710;-71
2024/01/28 03:36:40;;;;;;;3.40;2.08;;;;;;;20.51;39.41;103043.31;4926698;28;127236;-71
2024/01/28 03:39:06;;;;;;;3.75;1.30;;;;;;;20.50;39.02;103038.03;4926403;28;125395;-71
2024/01/28 03:41:31;;;;;;;3.58;1.92;;;;;;;20.50;38.99;103038.03;4908231;28;97367;-71
2024/01/28 03:43:57;;;;;;;4.18;2.13;;;;;;;20.49;39.03;103042.41;4922890;28;96979;-72
2024/01/28 03:46:22;;;;;;;5.10;2.15;;;;;;;20.49;39.05;103044.19;4907201;28;125742;-71
2024/01/28 03:48:47;;;;;;;3.78;2.17;;;;;;;20.50;38.95;103030.06;4926839;28;126456;-72
2024/01/28 03:51:13;;;;;;;3.20;1.75;;;;;;;20.49;38.98;103033.59;4910779;28;97268;-72
2024/01/28 03:53:38;;;;;;;3.28;1.88;;;;;;;20.49;39.00;103039.78;4927285;28;98363;-72
2024/01/28 03:56:06;;;;;;;3.50;2.28;;;;;;;20.50;38.92;103045.97;4907108;28;97490;-71
2024/01/28 03:58:31;;;;;;;3.13;1.83;;;;;;;20.49;38.88;103045.06;4910223;28;98075;-71
2024/01/28 04:00:56;;;;;;;4.78;1.90;;;;;;;20.48;39.05;103037.09;4927013;28;123928;-71
2024/01/28 04:03:22;;;;;;;4.43;2.05;;;;;;;20.48;39.11;103035.38;4926489;28;118069;-71
2024/01/28 04:05:47;;;;;;;2.97;1.73;;;;;;;20.46;39.01;103034.47;4924191;28;97460;-72
2024/01/28 04:08:12;;;;;;;3.03;2.10;;;;;;;20.47;38.83;103030.94;4909401;28;99673;-71
2024/01/28 04:10:38;;;;;;;3.13;2.30;;;;;;;20.47;38.94;103019.44;4909190;28;124331;-70
2024/01/28 04:13:03;;;;;;;3.97;1.48;;;;;;;20.47;38.84;103022.97;4925097;28;113642;-72
2024/01/28 04:15:29;;;;;;;3.30;1.55;;;;;;;20.47;39.14;103024.75;4927410;28;97466;-71
2024/01/28 04:17:54;;;;;;;3.20;2.00;;;;;;;20.46;39.04;103025.63;4908432;28;97169;-71
2024/01/28 04:20:19;;;;;;;3.00;1.42;;;;;;;20.46;39.01;103021.22;4926735;28;121813;-71
2024/01/28 04:22:45;;;;;;;3.30;1.67;;;;;;;20.45;38.92;103022.09;4925995;28;96648;-71
2024/01/28 04:25:13;;;;;;;4.03;2.15;;;;;;;20.46;38.74;103025.63;4909120;28;129393;-71
2024/01/28 04:27:38;;;;;;;3.35;1.60;;;;;;;20.47;38.77;103011.50;4909755;28;96943;-71
2024/01/28 04:30:05;;;;;;;3.15;2.03;;;;;;;20.46;39.08;103005.31;4927542;28;97309;-72
2024/01/28 04:32:30;;;;;;;3.00;1.90;;;;;;;20.45;38.98;103011.47;4924750;28;97110;-70
2024/01/28 04:34:56;;;;;;;3.15;1.73;;;;;;;20.44;38.82;103004.38;4929563;28;97859;-72
2024/01/28 04:37:22;;;;;;;3.92;2.33;;;;;;;20.45;38.75;103002.66;4927575;28;126718;-72
2024/01/28 04:39:48;;;;;;;4.38;2.28;;;;;;;20.46;38.85;102996.44;4921838;28;97528;-71
2024/01/28 04:42:13;;;;;;;3.28;1.90;;;;;;;20.45;38.96;103005.31;4932270;28;96785;-71
2024/01/28 04:44:38;;;;;;;3.90;1.70;;;;;;;20.45;38.98;103005.31;4930816;28;107480;-72
2024/01/28 04:47:04;;;;;;;5.00;2.03;;;;;;;20.44;38.94;103008.81;4914458;28;97296;-72
2024/01/28 04:49:29;;;;;;;3.15;1.42;;;;;;;20.44;39.01;103000.88;4928214;28;97111;-72
2024/01/28 04:51:55;;;;;;;3.08;1.77;;;;;;;20.44;38.69;103003.50;4927869;28;96930;-71
2024/01/28 04:54:22;;;;;;;3.15;1.92;;;;;;;20.43;39.10;102994.69;4927841;28;96873;-71
2024/01/28 04:56:48;;;;;;;2.63;1.73;;;;;;;20.43;38.99;102996.47;4930332;28;96845;-71
2024/01/28 04:59:13;;;;;;;3.33;1.90;;;;;;;20.44;39.03;102995.56;4913106;28;96869;-71
2024/01/28 05:01:39;;;;;;;3.03;1.63;;;;;;;20.43;38.83;102991.16;4907588;28;96954;-72
2024/01/28 05:04:04;;;;;;;3.75;2.33;;;;;;;20.43;38.67;102991.16;4929959;28;100218;-72
2024/01/28 05:06:36;;;;;;;4.28;2.15;;;;;;;20.42;38.94;102982.28;4912956;28;97408;-71
2024/01/28 05:09:06;;;;;;;3.60;1.67;;;;;;;20.43;38.80;102977.91;4909440;28;96836;-71
2024/01/28 05:11:31;;;;;;;2.70;2.00;;;;;;;20.41;38.60;102969.94;4926269;28;97037;-71
2024/01/28 05:13:57;;;;;;;3.00;1.55;;;;;;;20.42;39.01;102973.47;4928966;28;125614;-72
2024/01/28 05:16:23;;;;;;;3.83;2.13;;;;;;;20.42;38.92;102965.50;4930033;28;98216;-71
2024/01/28 05:18:49;;;;;;;3.42;1.52;;;;;;;20.42;38.76;102965.50;4912945;28;97410;-72
2024/01/28 05:21:14;;;;;;;3.45;2.25;;;;;;;20.42;39.09;102954.91;4931543;28;99879;-72
2024/01/28 05:23:39;;;;;;;4.18;1.73;;;;;;;20.40;38.89;102946.94;4909303;28;127118;-72
2024/01/28 05:26:06;;;;;;;2.75;1.55;;;;;;;20.40;38.83;102946.94;4926161;28;97272;-74
2024/01/28 05:28:31;;;;;;;2.90;1.52;;;;;;;20.41;39.02;102945.19;4930185;28;97201;-71
2024/01/28 05:30:56;;;;;;;3.85;1.85;;;;;;;20.40;38.54;102941.66;4929622;28;121784;-71
2024/01/28 05:33:22;;;;;;;3.40;2.13;;;;;;;20.39;38.56;102942.50;4911793;28;124561;-71
2024/01/28 05:35:47;;;;;;;3.80;2.13;;;;;;;20.39;38.69;102942.50;4928528;28;126536;-72
2024/01/28 05:38:12;;;;;;;3.70;1.92;;;;;;;20.40;38.58;102941.66;4904711;28;96936;-72
2024/01/28 05:40:38;;;;;;;3.58;2.20;;;;;;;20.39;39.08;102947.81;4926314;28;123232;-72
2024/01/28 05:43:03;;;;;;;3.22;1.92;;;;;;;20.40;38.64;102948.72;4929963;28;97444;-72
2024/01/28 05:45:29;;;;;;;3.42;2.03;;;;;;;20.38;38.64;102948.72;4929673;28;97887;-71
2024/01/28 05:47:56;;;;;;;3.55;1.95;;;;;;;20.38;38.95;102946.06;4911272;28;122102;-71
2024/01/28 05:50:21;;;;;;;3.40;1.80;;;;;;;20.39;38.90;102945.16;4901349;28;97129;-72
2024/01/28 05:52:47;;;;;;;4.35;2.13;;;;;;;20.39;38.61;102939.00;4930037;28;104830;-71
2024/01/28 05:55:12;;;;;;;3.33;1.60;;;;;;;20.39;38.67;102939.00;4901518;28;97664;-72
2024/01/28 05:57:37;;;;;;;2.97;1.95;;;;;;;20.39;38.71;102933.69;4929031;28;97020;-72
2024/01/28 06:00:03;;;;;;;3.75;1.52;;;;;;;20.38;38.62;102927.50;4926260;28;97055;-72
2024/01/28 06:02:34;;;;;;;3.05;1.90;;;;;;;20.37;38.95;102917.78;4928876;28;97284;-72
2024/01/28 06:05:00;;;;;;;3.35;1.40;;;;;;;20.38;38.51;102916.03;4928446;28;97203;-71
2024/01/28 06:07:25;;;;;;;3.38;1.98;;;;;;;20.38;38.49;102916.03;4930758;28;103640;-72
2024/01/28 06:09:50;;;;;;;3.05;1.90;;;;;;;20.36;38.63;102908.06;4927910;28;120246;-71
2024/01/28 06:12:16;;;;;;;3.00;2.03;;;;;;;20.36;38.63;102910.72;4929480;28;127405;-72
2024/01/28 06:14:41;;;;;;;2.70;1.73;;;;;;;20.37;38.57;102914.25;4910870;28;97998;-72
2024/01/28 06:17:06;;;;;;;3.38;1.80;;;;;;;20.35;38.42;102906.28;4926844;28;120905;-71
2024/01/28 06:19:32;;;;;;;3.63;2.13;;;;;;;20.35;38.50;102901.84;4929035;28;101994;-72
2024/01/28 06:22:01;;;;;;;3.10;1.77;;;;;;;20.35;38.84;102904.50;4924308;28;102183;-71
2024/01/28 06:24:27;;;;;;;3.10;1.58;;;;;;;20.35;38.69;102904.50;4929215;28;97280;-71
2024/01/28 06:26:52;;;;;;;3.40;1.70;;;;;;;20.35;38.43;102900.97;4904137;28;96789;-71
2024/01/28 06:29:18;;;;;;;4.10;1.80;;;;;;;20.35;38.44;102900.97;4894131;28;122755;-71
2024/01/28 06:31:44;;;;;;;3.97;2.15;;;;;;;20.34;38.30;102900.09;4926774;28;126224;-71
2024/01/28 06:34:10;;;;;;;2.90;1.40;;;;;;;20.35;38.65;102893.03;4925981;28;97383;-72
2024/01/28 06:36:35;;;;;;;3.47;1.80;;;;;;;20.33;38.71;102882.41;4929879;28;97827;-71
2024/01/28 06:39:01;;;;;;;2.67;1.33;;;;;;;20.34;38.54;102876.25;4910020;28;122237;-71
2024/01/28 06:41:26;;;;;;;2.97;1.15;;;;;;;20.34;38.37;102864.78;4927168;28;127375;-72
2024/01/28 06:43:52;;;;;;;3.63;2.00;;;;;;;20.33;38.55;102871.81;4911182;28;125597;-72
2024/01/28 06:46:19;;;;;;;3.78;1.80;;;;;;;20.34;38.31;102862.13;4927881;28;96648;-71
2024/01/28 06:48:44;;;;;;;3.33;1.33;;;;;;;20.33;38.78;102861.22;4928627;28;97930;-72
2024/01/28 06:51:09;;;;;;;4.13;2.42;;;;;;;20.33;38.64;102866.53;4910423;28;98851;-72
2024/01/28 06:53:36;;;;;;;2.70;1.45;;;;;;;20.33;38.48;102870.94;4917039;28;126378;-71
2024/01/28 06:56:01;;;;;;;3.47;2.10;;;;;;;20.33;38.71;102857.69;4917383;28;98811;-72
2024/01/28 06:58:27;;;;;;;3.35;1.95;;;;;;;20.33;38.27;102860.34;4924892;28;109863;-72
2024/01/28 07:00:53;;;;;;;2.95;1.50;;;;;;;20.33;38.71;102863.00;4908545;28;98807;-72
2024/01/28 07:03:19;;;;;;;3.53;1.80;;;;;;;20.32;38.42;102867.41;4909533;28;96900;-71
2024/01/28 07:05:46;;;;;;;3.53;1.73;;;;;;;20.32;38.33;102872.72;4919910;28;96959;-72
2024/01/28 07:08:13;;;;;;;2.55;1.40;;;;;;;20.33;38.61;102870.94;4923462;28;96900;-72
2024/01/28 07:10:38;;;;;;;2.97;1.70;;;;;;;20.32;38.32;102875.38;4918419;28;97788;-71
2024/01/28 07:13:04;;;;;;;3.78;1.60;;;;;;;20.32;38.52;102866.50;4924295;28;97187;-71
2024/01/28 07:15:30;;;;;;;2.95;1.30;;;;;;;20.32;38.64;102870.06;4919254;28;96741;-71
2024/01/28 07:17:55;;;;;;;3.67;1.70;;;;;;;20.31;38.58;102865.63;4916747;28;97517;-72
2024/01/28 07:20:20;;;;;;;2.75;1.40;;;;;;;20.32;38.73;102863.84;4914523;28;127554;-71
2024/01/28 07:22:46;;;;;;;3.10;2.22;;;;;;;20.31;38.31;102862.97;4926283;28;97547;-71
2024/01/28 07:25:13;;;;;;;3.08;1.48;;;;;;;20.31;38.41;102870.94;4921330;28;97373;-72
2024/01/28 07:27:39;;;;;;;3.45;2.05;;;;;;;20.31;38.62;102860.31;4923929;28;96987;-71
2024/01/28 07:30:06;;;;;;;2.90;1.30;;;;;;;20.32;38.45;102871.81;4922807;28;97050;-71
2024/01/28 07:32:31;;;;;;;3.72;1.73;;;;;;;20.31;38.33;102873.59;4925080;28;98015;-71
2024/01/28 07:34:57;;;;;;;3.72;2.47;;;;;;;20.32;38.62;102866.50;4893906;28;96864;-72
2024/01/28 07:37:22;;;;;;;4.35;1.92;;;;;;;20.31;38.51;102867.41;4911313;28;96988;-71
2024/01/28 07:39:47;;;;;;;4.47;2.08;;;;;;;20.31;38.56;102859.44;4906322;28;101827;-71
2024/01/28 07:42:13;;;;;;;3.40;2.10;;;;;;;20.31;38.33;102864.75;4918881;28;96847;-71
2024/01/28 07:44:39;;;;;;;3.25;1.60;;;;;;;20.30;38.65;102857.66;4895480;28;97244;-72
2024/01/28 07:47:04;;;;;;;4.35;1.45;;;;;;;20.30;38.52;102858.59;4897355;28;97826;-71
2024/01/28 07:49:30;;;;;;;2.30;1.15;;;;;;;20.31;38.54;102862.97;4908468;28;97945;-71
2024/01/28 07:51:56;;;;;;;3.42;1.92;;;;;;;20.30;38.36;102863.88;4909508;28;98383;-72
2024/01/28 07:54:21;;;;;;;2.88;1.45;;;;;;;20.31;38.25;102862.09;4907373;28;97786;-71
2024/01/28 07:56:46;;;;;;;3.33;1.77;;;;;;;20.30;38.58;102855.94;4911493;28;96882;-71
2024/01/28 07:59:12;;;;;;;2.75;1.73;;;;;;;20.30;38.56;102861.22;4920783;28;106929;-71
2024/01/28 08:01:37;;;;;;;2.83;1.83;;;;;;;20.30;38.29;102855.94;4902521;28;97243;-71
2024/01/28 08:04:03;;;;;;;3.22;1.70;;;;;;;20.31;38.55;102868.28;4926110;28;96989;-72
2024/01/28 08:06:30;;;;;;;3.17;1.55;;;;;;;20.31;38.52;102865.63;4926228;28;98105;-72
2024/01/28 08:08:55;;;;;;;2.88;1.60;;;;;;;20.32;38.38;102858.56;4909210;28;97587;-72
2024/01/28 08:11:20;;;;;;;3.20;1.83;;;;;;;20.31;38.48;102859.44;4909124;28;97932;-71
2024/01/28 08:13:47;;;;;;;3.35;1.25;;;;;;;20.31;38.17;102855.03;4907226;28;97008;-72
2024/01/28 08:16:13;;;;;;;3.40;1.63;;;;;;;20.31;38.21;102859.44;4921943;28;96738;-71
2024/01/28 08:18:39;;;;;;;4.65;2.17;;;;;;;20.30;38.53;102853.28;4927279;28;96666;-71
2024/01/28 08:21:04;;;;;;;4.38;1.42;;;;;;;20.30;38.59;102847.97;4916718;28;97051;-72
2024/01/28 08:23:30;;;;;;;2.53;1.13;;;;;;;20.31;38.46;102848.84;4910792;28;96787;-71
2024/01/28 08:25:55;;;;;;;4.00;2.10;;;;;;;20.31;38.63;102852.38;4910958;28;96809;-72
2024/01/28 08:28:21;;;;;;;3.25;1.38;;;;;;;20.30;38.35;102853.28;4908677;28;125586;-71
2024/01/28 08:30:47;;;;;;;3.42;1.77;;;;;;;20.30;38.41;102858.59;4908745;28;96817;-71
2024/01/28 08:33:12;;;;;;;3.75;1.73;;;;;;;20.30;38.34;102855.94;4918032;28;96994;-72
2024/01/28 08:35:38;;;;;;;2.47;1.10;;;;;;;20.30;38.22;102866.53;4918963;28;96827;-71
2024/01/28 08:38:04;;;;;;;4.88;1.83;;;;;;;20.31;38.27;102870.06;4923516;28;97521;-71
2024/01/28 08:40:29;;;;;;;2.42;1.30;;;;;;;20.30;38.16;102861.22;4921883;28;97228;-71
2024/01/28 08:42:56;;;;;;;3.65;1.95;;;;;;;20.30;38.48;102861.22;4906787;28;97443;-71
2024/01/28 08:45:22;;;;;;;2.83;1.88;;;;;;;20.30;38.26;102858.59;4917481;28;97806;-71
2024/01/28 08:47:47;;;;;;;2.95;1.70;;;;;;;20.31;38.21;102852.38;4914899;28;97577;-71
2024/01/28 08:50:12;;;;;;;2.72;1.83;;;;;;;20.31;38.25;102854.16;4921755;28;125424;-71
2024/01/28 08:52:38;;;;;;;4.57;1.77;;;;;;;20.30;38.46;102842.69;4922751;28;96868;-71
2024/01/28 08:55:04;;;;;;;4.47;1.52;;;;;;;20.31;38.49;102843.56;4919937;28;107505;-71
2024/01/28 08:57:29;;;;;;;3.83;2.08;;;;;;;20.31;38.55;102840.91;4930864;28;97243;-71
2024/01/28 08:59:55;;;;;;;4.20;1.65;;;;;;;20.30;38.16;102834.72;4913797;28;96921;-71
2024/01/28 09:02:20;;;;;;;3.60;1.30;;;;;;;20.30;38.40;102834.72;4911112;28;122119;-71
2024/01/28 09:04:45;;;;;;;3.30;1.60;;;;;;;20.30;38.26;102832.06;4919342;28;96856;-71
2024/01/28 09:07:11;;;;;;;3.30;1.38;;;;;;;20.31;38.07;102839.13;4927045;28;97291;-70
2024/01/28 09:09:36;;;;;;;3.28;1.83;;;;;;;20.31;38.17;102836.47;4926358;28;121157;-72
2024/01/28 09:12:02;;;;;;;4.93;2.20;;;;;;;20.31;38.20;102833.84;4909815;28;96705;-71
2024/01/28 09:14:28;;;;;;;4.80;1.98;;;;;;;20.31;38.28;102828.53;4927142;28;96850;-71
2024/01/28 09:16:54;;;;;;;2.63;1.80;;;;;;;20.32;38.28;102817.06;4926439;28;97875;-71
2024/01/28 09:19:19;;;;;;;3.92;1.70;;;;;;;20.33;38.52;102816.16;4926951;28;96731;-71
2024/01/28 09:21:44;;;;;;;2.90;1.23;;;;;;;20.34;38.12;102814.41;4915577;28;101853;-71
2024/01/28 09:24:10;;;;;;;3.47;1.95;;;;;;;20.34;38.16;102812.66;4905859;28;96995;-70
2024/01/28 09:26:35;;;;;;;3.08;1.60;;;;;;;20.35;38.31;102818.81;4919190;28;115141;-71
2024/01/28 09:29:00;;;;;;;3.20;1.42;;;;;;;20.34;38.20;102815.28;4926185;28;126782;-71
2024/01/28 09:31:26;;;;;;;3.45;1.75;;;;;;;20.35;38.13;102813.53;4921838;28;96913;-71
2024/01/28 09:33:51;;;;;;;2.53;1.50;;;;;;;20.35;38.33;102811.75;4930658;28;112222;-71
2024/01/28 09:36:16;;;;;;;3.17;1.40;;;;;;;20.37;38.08;102811.75;4928474;28;103687;-71
2024/01/28 09:38:42;;;;;;;3.28;1.70;;;;;;;20.37;38.37;102808.22;4928363;28;126715;-71
2024/01/28 09:41:21;;;;;;;3.08;1.95;;;;;;;20.37;38.10;102814.41;4924951;28;97070;-71
2024/01/28 09:43:46;;;;;;;3.55;1.80;;;;;;;20.38;38.16;102815.31;4925063;28;97132;-71
2024/01/28 09:46:12;;;;;;;3.60;1.67;;;;;;;20.38;38.08;102812.66;4910583;28;126656;-71
2024/01/28 09:48:39;;;;;;;3.45;2.35;;;;;;;20.39;38.22;102822.38;4928652;28;96908;-71
2024/01/28 09:51:08;;;;;;;2.78;1.50;;;;;;;20.40;38.04;102822.38;4912632;28;96893;-71
2024/01/28 09:53:33;;;;;;;4.35;1.70;;;;;;;20.40;38.02;102819.72;4928352;28;96855;-71
2024/01/28 09:55:59;;;;;;;3.95;1.55;;;;;;;20.40;38.13;102814.44;4927364;28;97948;-71
2024/01/28 09:58:25;;;;;;;3.80;1.90;;;;;;;20.40;38.03;102814.44;4925944;28;97303;-71
2024/01/28 10:00:51;;;;;;;2.88;1.65;;;;;;;20.41;38.23;102808.25;4929556;28;96748;-71
2024/01/28 10:03:16;;;;;;;3.30;1.92;;;;;;;20.42;38.34;102809.13;4929499;28;98288;-71
2024/01/28 10:05:41;;;;;;;3.17;1.50;;;;;;;20.43;38.19;102814.44;4911723;28;96928;-71
2024/01/28 10:08:07;;;;;;;2.53;1.48;;;;;;;20.44;38.10;102810.00;4920904;28;126999;-71
2024/01/28 10:10:36;;;;;;;3.65;1.35;;;;;;;20.44;38.00;102807.38;4915111;28;109288;-71
2024/01/28 10:13:04;;;;;;;;;;;;;;;20.37;38.08;102806.47;4926363;28;97263;-71
2024/01/28 10:15:31;;;;;;;4.25;1.30;;;;;;;20.38;38.12;102799.41;4927828;28;97503;-71
2024/01/28 10:17:56;;;;;;;3.15;1.75;;;;;;;20.42;38.09;102803.84;4925751;28;97831;-71
2024/01/28 10:20:23;;;;;;;3.03;1.40;;;;;;;20.43;38.41;102798.53;4926778;28;97290;-71
2024/01/28 10:22:49;;;;;;;3.50;1.73;;;;;;;20.44;38.41;102794.13;4920437;28;97458;-71
2024/01/28 10:25:16;;;;;;;2.25;1.10;;;;;;;20.44;38.17;102802.06;4921561;28;98704;-71
2024/01/28 10:27:42;;;;;;;2.38;1.42;;;;;;;20.46;38.31;102797.66;4923900;28;97772;-71
2024/01/28 10:30:09;;;;;;;3.90;1.60;;;;;;;20.45;38.21;102798.56;4920444;28;96967;-71
2024/01/28 10:32:35;;;;;;;3.45;1.08;;;;;;;20.46;38.42;102795.00;4922152;28;96848;-71
2024/01/28 10:35:00;;;;;;;2.55;1.33;;;;;;;20.47;38.03;102788.84;4927079;28;97609;-71
2024/01/28 10:37:32;;;;;;;2.70;1.45;;;;;;;20.47;38.31;102786.19;4905053;28;97361;-71
2024/01/28 10:40:03;;;;;;;2.60;1.50;;;;;;;20.47;38.27;102780.88;4900079;28;99090;-71
2024/01/28 10:42:35;;;;;;;2.88;1.48;;;;;;;20.48;37.92;102774.69;4919810;28;96861;-71
2024/01/28 10:45:04;;;;;;;2.50;1.27;;;;;;;20.47;38.08;102772.94;4921308;28;98174;-72
2024/01/28 10:47:31;;;;;;;2.75;1.42;;;;;;;20.48;37.97;102769.38;4924810;28;98919;-71
2024/01/28 10:50:02;;;;;;;2.95;1.75;;;;;;;20.49;37.99;102763.19;4928819;28;97388;-71
2024/01/28 10:52:29;;;;;;;3.58;1.23;;;;;;;20.48;38.18;102761.41;4912159;28;96872;-71
2024/01/28 10:54:55;;;;;;;3.25;1.70;;;;;;;20.49;38.18;102763.19;4926560;28;97706;-71
2024/01/28 10:57:21;;;;;;;2.58;1.38;;;;;;;20.49;37.93;102753.47;4910144;28;96741;-71
2024/01/28 10:59:47;;;;;;;4.70;1.92;;;;;;;20.49;38.29;102753.47;4922372;28;97492;-71
2024/01/28 11:02:13;;;;;;;3.55;1.17;;;;;;;20.49;38.13;102749.94;4929091;28;96838;-71
2024/01/28 11:04:40;;;;;;;2.95;1.13;;;;;;;20.49;38.17;102750.81;4921758;28;97197;-71
2024/01/28 11:07:06;;;;;;;3.45;1.58;;;;;;;20.49;37.82;102740.22;4927582;28;96646;-71
2024/01/28 11:09:32;;;;;;;3.83;1.45;;;;;;;20.50;37.92;102735.84;4923297;28;97871;-71
2024/01/28 11:11:58;;;;;;;3.33;1.70;;;;;;;20.49;38.13;102728.75;4920701;28;96915;-71
2024/01/28 11:14:25;;;;;;;3.58;1.20;;;;;;;20.49;38.00;102723.44;4916284;28;98628;-71
2024/01/28 11:16:50;;;;;;;2.08;1.13;;;;;;;20.48;37.93;102722.56;4922074;28;97268;-71